sensor_id;sensor_type;location;lat;lon;timestamp;temperature;humidity
63313;DHT22;49442;45.640;13.812;2024-02-21T00:00:45;10.70;99.90
63313;DHT22;49442;45.640;13.812;2024-02-21T00:03:11;10.70;99.90
63313;DHT22;49442;45.640;13.812;2024-02-21T00:05:37;10.70;99.90
63313;DHT22;49442;45.640;13.812;2024-02-21T00:08:03;10.80;99.90
63313;DHT22;49442;45.640;13.812;2024-02-21T00:10:28;10.80;99.90
63313;DHT22;49442;45.640;13.812;2024-02-21T00:12:57;10.70;99.90
63313;DHT22;49442;45.640;13.812;2024-02-21T00:15:22;10.70;99.90
63313;DHT22;49442;45.640;13.812;2024-02-21T00:17:48;10.90;99.90
63313;DHT22;49442;45.640;13.812;2024-02-21T00:20:14;10.90;99.90
63313;DHT22;49442;45.640;13.812;2024-02-21T00:22:40;10.90;99.90
63313;DHT22;49442;45.640;13.812;2024-02-21T00:25:06;10.90;99.90
63313;DHT22;49442;45.640;13.812;2024-02-21T00:27:32;10.90;99.90
63313;DHT22;49442;45.640;13.812;2024-02-21T00:29:58;10.90;99.90
63313;DHT22;49442;45.640;13.812;2024-02-21T00:32:23;11.00;99.90
63313;DHT22;49442;45.640;13.812;2024-02-21T00:34:49;11.10;99.90
63313;DHT22;49442;45.640;13.812;2024-02-21T00:37:15;11.20;99.90
63313;DHT22;49442;45.640;13.812;2024-02-21T00:39:40;11.30;99.90
63313;DHT22;49442;45.640;13.812;2024-02-21T00:42:07;11.30;99.90
63313;DHT22;49442;45.640;13.812;2024-02-21T00:44:33;11.20;99.90
63313;DHT22;49442;45.640;13.812;2024-02-21T00:46:59;11.10;99.90
63313;DHT22;49442;45.640;13.812;2024-02-21T00:49:24;11.10;99.90
63313;DHT22;49442;45.640;13.812;2024-02-21T00:51:50;11.00;99.90
63313;DHT22;49442;45.640;13.812;2024-02-21T00:54:16;10.90;99.90
63313;DHT22;49442;45.640;13.812;2024-02-21T00:56:42;10.90;99.90
63313;DHT22;49442;45.640;13.812;2024-02-21T00:59:08;10.80;99.90
63313;DHT22;49442;45.640;13.812;2024-02-21T01:01:34;10.60;99.90
63313;DHT22;49442;45.640;13.812;2024-02-21T01:03:59;10.50;99.90
63313;DHT22;49442;45.640;13.812;2024-02-21T01:06:25;10.30;99.90
63313;DHT22;49442;45.640;13.812;2024-02-21T01:08:51;10.20;99.90
63313;DHT22;49442;45.640;13.812;2024-02-21T01:11:17;10.20;99.90
63313;DHT22;49442;45.640;13.812;2024-02-21T01:13:43;10.10;99.90
63313;DHT22;49442;45.640;13.812;2024-02-21T01:16:08;10.10;99.90
63313;DHT22;49442;45.640;13.812;2024-02-21T01:18:36;10.00;99.90
63313;DHT22;49442;45.640;13.812;2024-02-21T01:21:02;10.00;99.90
63313;DHT22;49442;45.640;13.812;2024-02-21T01:23:28;9.90;99.90
63313;DHT22;49442;45.640;13.812;2024-02-21T01:25:54;9.90;99.90
63313;DHT22;49442;45.640;13.812;2024-02-21T01:28:20;9.80;99.90
63313;DHT22;49442;45.640;13.812;2024-02-21T01:30:46;9.90;99.90
63313;DHT22;49442;45.640;13.812;2024-02-21T01:33:12;10.00;99.90
63313;DHT22;49442;45.640;13.812;2024-02-21T01:35:37;10.10;99.90
63313;DHT22;49442;45.640;13.812;2024-02-21T01:38:03;10.20;99.90
63313;DHT22;49442;45.640;13.812;2024-02-21T01:40:30;10.20;99.90
63313;DHT22;49442;45.640;13.812;2024-02-21T01:42:56;10.30;99.90
63313;DHT22;49442;45.640;13.812;2024-02-21T01:45:21;10.40;99.90
63313;DHT22;49442;45.640;13.812;2024-02-21T01:47:48;10.40;99.90
63313;DHT22;49442;45.640;13.812;2024-02-21T01:50:15;10.50;99.90
63313;DHT22;49442;45.640;13.812;2024-02-21T01:52:43;10.50;99.90
63313;DHT22;49442;45.640;13.812;2024-02-21T01:55:10;10.40;99.90
63313;DHT22;49442;45.640;13.812;2024-02-21T01:57:36;10.50;99.90
63313;DHT22;49442;45.640;13.812;2024-02-21T02:00:03;10.40;99.90
63313;DHT22;49442;45.640;13.812;2024-02-21T02:02:29;10.40;99.90
63313;DHT22;49442;45.640;13.812;2024-02-21T02:04:55;10.40;99.90
63313;DHT22;49442;45.640;13.812;2024-02-21T02:07:21;10.50;99.90
63313;DHT22;49442;45.640;13.812;2024-02-21T02:09:47;10.50;99.90
63313;DHT22;49442;45.640;13.812;2024-02-21T02:12:13;10.50;99.90
63313;DHT22;49442;45.640;13.812;2024-02-21T02:14:38;10.60;99.90
63313;DHT22;49442;45.640;13.812;2024-02-21T02:17:05;10.50;99.90
63313;DHT22;49442;45.640;13.812;2024-02-21T02:19:31;10.60;99.90
63313;DHT22;49442;45.640;13.812;2024-02-21T02:22:13;10.60;99.90
63313;DHT22;49442;45.640;13.812;2024-02-21T02:24:40;10.70;99.90
63313;DHT22;49442;45.640;13.812;2024-02-21T02:27:05;10.60;99.90
63313;DHT22;49442;45.640;13.812;2024-02-21T02:29:32;10.60;99.90
63313;DHT22;49442;45.640;13.812;2024-02-21T02:31:58;10.60;99.90
63313;DHT22;49442;45.640;13.812;2024-02-21T02:34:24;10.60;99.90
63313;DHT22;49442;45.640;13.812;2024-02-21T02:36:49;10.60;99.90
63313;DHT22;49442;45.640;13.812;2024-02-21T02:39:15;10.50;99.90
63313;DHT22;49442;45.640;13.812;2024-02-21T02:41:41;10.50;99.90
63313;DHT22;49442;45.640;13.812;2024-02-21T02:44:06;10.40;99.90
63313;DHT22;49442;45.640;13.812;2024-02-21T02:46:32;10.50;99.90
63313;DHT22;49442;45.640;13.812;2024-02-21T02:48:58;10.50;99.90
63313;DHT22;49442;45.640;13.812;2024-02-21T02:51:23;10.50;99.90
63313;DHT22;49442;45.640;13.812;2024-02-21T02:53:49;10.50;99.90
63313;DHT22;49442;45.640;13.812;2024-02-21T02:56:15;10.50;99.90
63313;DHT22;49442;45.640;13.812;2024-02-21T02:58:42;10.40;99.90
63313;DHT22;49442;45.640;13.812;2024-02-21T03:01:08;10.40;99.90
63313;DHT22;49442;45.640;13.812;2024-02-21T03:03:34;10.40;99.90
63313;DHT22;49442;45.640;13.812;2024-02-21T03:06:00;10.40;99.90
63313;DHT22;49442;45.640;13.812;2024-02-21T03:08:26;10.30;99.90
63313;DHT22;49442;45.640;13.812;2024-02-21T03:10:52;10.30;99.90
63313;DHT22;49442;45.640;13.812;2024-02-21T03:13:17;10.30;99.90
63313;DHT22;49442;45.640;13.812;2024-02-21T03:15:43;10.20;99.90
63313;DHT22;49442;45.640;13.812;2024-02-21T03:18:09;10.20;99.90
63313;DHT22;49442;45.640;13.812;2024-02-21T03:20:34;10.20;99.90
63313;DHT22;49442;45.640;13.812;2024-02-21T03:23:00;10.20;99.90
63313;DHT22;49442;45.640;13.812;2024-02-21T03:25:25;10.20;99.90
63313;DHT22;49442;45.640;13.812;2024-02-21T03:27:51;10.10;99.90
63313;DHT22;49442;45.640;13.812;2024-02-21T03:30:17;10.10;99.90
63313;DHT22;49442;45.640;13.812;2024-02-21T03:32:43;10.10;99.90
63313;DHT22;49442;45.640;13.812;2024-02-21T03:35:09;10.10;99.90
63313;DHT22;49442;45.640;13.812;2024-02-21T03:37:35;10.10;99.90
63313;DHT22;49442;45.640;13.812;2024-02-21T03:40:00;10.10;99.90
63313;DHT22;49442;45.640;13.812;2024-02-21T03:42:27;10.10;99.90
63313;DHT22;49442;45.640;13.812;2024-02-21T03:44:55;10.10;99.90
63313;DHT22;49442;45.640;13.812;2024-02-21T03:47:21;10.20;99.90
63313;DHT22;49442;45.640;13.812;2024-02-21T03:49:47;10.10;99.90
63313;DHT22;49442;45.640;13.812;2024-02-21T03:52:12;10.10;99.90
63313;DHT22;49442;45.640;13.812;2024-02-21T03:54:38;10.10;99.90
63313;DHT22;49442;45.640;13.812;2024-02-21T03:57:05;10.10;99.90
63313;DHT22;49442;45.640;13.812;2024-02-21T03:59:31;10.10;99.90
63313;DHT22;49442;45.640;13.812;2024-02-21T04:01:56;10.10;99.90
63313;DHT22;49442;45.640;13.812;2024-02-21T04:04:22;10.00;99.90
63313;DHT22;49442;45.640;13.812;2024-02-21T04:06:48;10.00;99.90
63313;DHT22;49442;45.640;13.812;2024-02-21T04:09:15;10.00;99.90
63313;DHT22;49442;45.640;13.812;2024-02-21T04:11:40;10.00;99.90
63313;DHT22;49442;45.640;13.812;2024-02-21T04:14:06;10.00;99.90
63313;DHT22;49442;45.640;13.812;2024-02-21T04:16:34;9.90;99.90
63313;DHT22;49442;45.640;13.812;2024-02-21T04:19:00;9.90;99.90
63313;DHT22;49442;45.640;13.812;2024-02-21T04:21:27;9.90;99.90
63313;DHT22;49442;45.640;13.812;2024-02-21T04:23:53;9.90;99.90
63313;DHT22;49442;45.640;13.812;2024-02-21T04:26:19;9.90;99.90
63313;DHT22;49442;45.640;13.812;2024-02-21T04:28:47;9.80;99.90
63313;DHT22;49442;45.640;13.812;2024-02-21T04:31:13;9.80;99.90
63313;DHT22;49442;45.640;13.812;2024-02-21T04:33:39;9.70;99.90
63313;DHT22;49442;45.640;13.812;2024-02-21T04:36:04;9.70;99.90
63313;DHT22;49442;45.640;13.812;2024-02-21T04:38:31;9.80;99.90
63313;DHT22;49442;45.640;13.812;2024-02-21T04:40:56;9.80;99.90
63313;DHT22;49442;45.640;13.812;2024-02-21T04:43:24;9.70;99.90
63313;DHT22;49442;45.640;13.812;2024-02-21T04:45:50;9.80;99.90
63313;DHT22;49442;45.640;13.812;2024-02-21T04:48:16;9.70;99.90
63313;DHT22;49442;45.640;13.812;2024-02-21T04:50:42;9.80;99.90
63313;DHT22;49442;45.640;13.812;2024-02-21T04:53:08;9.70;99.90
63313;DHT22;49442;45.640;13.812;2024-02-21T04:55:33;9.70;99.90
63313;DHT22;49442;45.640;13.812;2024-02-21T04:57:59;9.60;99.90
63313;DHT22;49442;45.640;13.812;2024-02-21T05:00:27;9.70;99.90
63313;DHT22;49442;45.640;13.812;2024-02-21T05:02:53;9.60;99.90
63313;DHT22;49442;45.640;13.812;2024-02-21T05:05:19;9.60;99.90
63313;DHT22;49442;45.640;13.812;2024-02-21T05:07:44;9.50;99.90
63313;DHT22;49442;45.640;13.812;2024-02-21T05:10:10;9.50;99.90
63313;DHT22;49442;45.640;13.812;2024-02-21T05:12:36;9.50;99.90
63313;DHT22;49442;45.640;13.812;2024-02-21T05:15:03;9.40;99.90
63313;DHT22;49442;45.640;13.812;2024-02-21T05:17:29;9.40;99.90
63313;DHT22;49442;45.640;13.812;2024-02-21T05:19:54;9.40;99.90
63313;DHT22;49442;45.640;13.812;2024-02-21T05:22:20;9.30;99.90
63313;DHT22;49442;45.640;13.812;2024-02-21T05:24:46;9.30;99.90
63313;DHT22;49442;45.640;13.812;2024-02-21T05:27:11;9.30;99.90
63313;DHT22;49442;45.640;13.812;2024-02-21T05:29:37;9.30;99.90
63313;DHT22;49442;45.640;13.812;2024-02-21T05:32:03;9.20;99.90
63313;DHT22;49442;45.640;13.812;2024-02-21T05:34:29;9.30;99.90
63313;DHT22;49442;45.640;13.812;2024-02-21T05:36:55;9.30;99.90
63313;DHT22;49442;45.640;13.812;2024-02-21T05:39:20;9.30;99.90
63313;DHT22;49442;45.640;13.812;2024-02-21T05:41:48;9.30;99.90
63313;DHT22;49442;45.640;13.812;2024-02-21T05:44:14;9.40;99.90
63313;DHT22;49442;45.640;13.812;2024-02-21T05:46:39;9.40;99.90
63313;DHT22;49442;45.640;13.812;2024-02-21T05:49:05;9.40;99.90
63313;DHT22;49442;45.640;13.812;2024-02-21T05:51:33;9.30;99.90
63313;DHT22;49442;45.640;13.812;2024-02-21T05:53:59;9.30;99.90
63313;DHT22;49442;45.640;13.812;2024-02-21T05:56:24;9.30;99.90
63313;DHT22;49442;45.640;13.812;2024-02-21T05:58:50;9.30;99.90
63313;DHT22;49442;45.640;13.812;2024-02-21T06:01:16;9.40;99.90
63313;DHT22;49442;45.640;13.812;2024-02-21T06:03:42;9.50;99.90
63313;DHT22;49442;45.640;13.812;2024-02-21T06:06:08;9.50;99.90
63313;DHT22;49442;45.640;13.812;2024-02-21T06:08:34;9.50;99.90
63313;DHT22;49442;45.640;13.812;2024-02-21T06:10:59;9.60;99.90
63313;DHT22;49442;45.640;13.812;2024-02-21T06:13:25;9.60;99.90
63313;DHT22;49442;45.640;13.812;2024-02-21T06:15:51;9.70;99.90
63313;DHT22;49442;45.640;13.812;2024-02-21T06:18:17;9.80;99.90
63313;DHT22;49442;45.640;13.812;2024-02-21T06:20:43;9.80;99.90
63313;DHT22;49442;45.640;13.812;2024-02-21T06:23:10;9.80;99.90
63313;DHT22;49442;45.640;13.812;2024-02-21T06:25:36;9.80;99.90
63313;DHT22;49442;45.640;13.812;2024-02-21T06:28:02;9.80;99.90
63313;DHT22;49442;45.640;13.812;2024-02-21T06:30:28;9.80;99.90
63313;DHT22;49442;45.640;13.812;2024-02-21T06:32:53;9.80;99.90
63313;DHT22;49442;45.640;13.812;2024-02-21T06:35:21;9.70;99.90
63313;DHT22;49442;45.640;13.812;2024-02-21T06:37:50;9.80;99.90
63313;DHT22;49442;45.640;13.812;2024-02-21T06:40:25;9.90;99.90
63313;DHT22;49442;45.640;13.812;2024-02-21T06:42:51;10.00;99.90
63313;DHT22;49442;45.640;13.812;2024-02-21T06:45:17;10.20;99.90
63313;DHT22;49442;45.640;13.812;2024-02-21T06:47:43;10.20;99.90
63313;DHT22;49442;45.640;13.812;2024-02-21T06:50:09;10.20;99.90
63313;DHT22;49442;45.640;13.812;2024-02-21T06:52:38;10.20;99.90
63313;DHT22;49442;45.640;13.812;2024-02-21T06:55:03;10.20;99.90
63313;DHT22;49442;45.640;13.812;2024-02-21T06:57:29;10.30;99.90
63313;DHT22;49442;45.640;13.812;2024-02-21T06:59:55;10.30;99.90
63313;DHT22;49442;45.640;13.812;2024-02-21T07:02:21;10.40;99.90
63313;DHT22;49442;45.640;13.812;2024-02-21T07:04:46;10.40;99.90
63313;DHT22;49442;45.640;13.812;2024-02-21T07:07:12;10.50;99.90
63313;DHT22;49442;45.640;13.812;2024-02-21T07:09:38;10.50;99.90
63313;DHT22;49442;45.640;13.812;2024-02-21T07:12:05;10.60;99.90
63313;DHT22;49442;45.640;13.812;2024-02-21T07:14:32;10.60;99.90
63313;DHT22;49442;45.640;13.812;2024-02-21T07:16:58;10.60;99.90
63313;DHT22;49442;45.640;13.812;2024-02-21T07:19:24;10.50;99.90
63313;DHT22;49442;45.640;13.812;2024-02-21T07:21:49;10.50;99.90
63313;DHT22;49442;45.640;13.812;2024-02-21T07:24:15;10.60;99.90
63313;DHT22;49442;45.640;13.812;2024-02-21T07:26:42;10.80;99.90
63313;DHT22;49442;45.640;13.812;2024-02-21T07:29:08;10.70;99.90
63313;DHT22;49442;45.640;13.812;2024-02-21T07:31:41;10.80;99.90
63313;DHT22;49442;45.640;13.812;2024-02-21T07:34:07;10.80;99.90
63313;DHT22;49442;45.640;13.812;2024-02-21T07:36:33;10.80;99.90
63313;DHT22;49442;45.640;13.812;2024-02-21T07:38:58;11.00;99.90
63313;DHT22;49442;45.640;13.812;2024-02-21T07:41:25;11.00;99.90
63313;DHT22;49442;45.640;13.812;2024-02-21T07:43:51;11.10;99.90
63313;DHT22;49442;45.640;13.812;2024-02-21T07:46:18;11.20;99.90
63313;DHT22;49442;45.640;13.812;2024-02-21T07:48:45;11.20;99.90
63313;DHT22;49442;45.640;13.812;2024-02-21T07:51:12;11.20;99.90
63313;DHT22;49442;45.640;13.812;2024-02-21T07:53:39;11.30;99.90
63313;DHT22;49442;45.640;13.812;2024-02-21T07:56:13;11.20;99.90
63313;DHT22;49442;45.640;13.812;2024-02-21T07:58:40;11.30;99.90
63313;DHT22;49442;45.640;13.812;2024-02-21T08:01:05;11.50;99.90
63313;DHT22;49442;45.640;13.812;2024-02-21T08:03:31;11.70;99.90
63313;DHT22;49442;45.640;13.812;2024-02-21T08:05:56;11.80;99.90
63313;DHT22;49442;45.640;13.812;2024-02-21T08:08:22;11.90;99.90
63313;DHT22;49442;45.640;13.812;2024-02-21T08:10:49;12.00;99.90
63313;DHT22;49442;45.640;13.812;2024-02-21T08:13:14;12.10;99.90
63313;DHT22;49442;45.640;13.812;2024-02-21T08:15:40;12.20;99.90
63313;DHT22;49442;45.640;13.812;2024-02-21T08:18:07;12.30;99.90
63313;DHT22;49442;45.640;13.812;2024-02-21T08:20:33;12.30;99.90
63313;DHT22;49442;45.640;13.812;2024-02-21T08:22:59;12.40;99.90
63313;DHT22;49442;45.640;13.812;2024-02-21T08:25:25;12.50;99.90
63313;DHT22;49442;45.640;13.812;2024-02-21T08:27:50;12.50;99.90
63313;DHT22;49442;45.640;13.812;2024-02-21T08:30:17;12.60;99.90
63313;DHT22;49442;45.640;13.812;2024-02-21T08:32:43;12.70;99.90
63313;DHT22;49442;45.640;13.812;2024-02-21T08:35:09;12.90;99.90
63313;DHT22;49442;45.640;13.812;2024-02-21T08:37:34;13.50;99.60
63313;DHT22;49442;45.640;13.812;2024-02-21T08:40:00;13.90;97.80
63313;DHT22;49442;45.640;13.812;2024-02-21T08:42:36;14.00;98.40
63313;DHT22;49442;45.640;13.812;2024-02-21T08:45:03;14.10;96.70
63313;DHT22;49442;45.640;13.812;2024-02-21T08:47:28;14.00;96.30
63313;DHT22;49442;45.640;13.812;2024-02-21T08:49:54;14.30;95.70
63313;DHT22;49442;45.640;13.812;2024-02-21T08:52:20;15.30;97.30
63313;DHT22;49442;45.640;13.812;2024-02-21T08:54:45;16.50;95.10
63313;DHT22;49442;45.640;13.812;2024-02-21T08:57:11;18.10;91.10
63313;DHT22;49442;45.640;13.812;2024-02-21T08:59:39;18.50;89.50
63313;DHT22;49442;45.640;13.812;2024-02-21T09:02:05;18.30;90.20
63313;DHT22;49442;45.640;13.812;2024-02-21T09:04:32;17.90;87.00
63313;DHT22;49442;45.640;13.812;2024-02-21T09:06:58;17.60;86.90
63313;DHT22;49442;45.640;13.812;2024-02-21T09:09:24;17.50;88.50
63313;DHT22;49442;45.640;13.812;2024-02-21T09:11:50;17.50;89.00
63313;DHT22;49442;45.640;13.812;2024-02-21T09:14:15;17.50;87.50
63313;DHT22;49442;45.640;13.812;2024-02-21T09:16:41;17.40;86.50
63313;DHT22;49442;45.640;13.812;2024-02-21T09:19:07;17.50;87.70
63313;DHT22;49442;45.640;13.812;2024-02-21T09:21:36;17.40;84.70
63313;DHT22;49442;45.640;13.812;2024-02-21T09:24:02;17.40;84.70
63313;DHT22;49442;45.640;13.812;2024-02-21T09:26:28;17.90;87.60
63313;DHT22;49442;45.640;13.812;2024-02-21T09:28:54;18.10;84.60
63313;DHT22;49442;45.640;13.812;2024-02-21T09:31:19;18.40;83.00
63313;DHT22;49442;45.640;13.812;2024-02-21T09:33:45;18.80;85.30
63313;DHT22;49442;45.640;13.812;2024-02-21T09:36:11;18.80;81.30
63313;DHT22;49442;45.640;13.812;2024-02-21T09:38:36;18.60;78.30
63313;DHT22;49442;45.640;13.812;2024-02-21T09:41:18;18.50;82.90
63313;DHT22;49442;45.640;13.812;2024-02-21T09:43:49;18.70;83.00
63313;DHT22;49442;45.640;13.812;2024-02-21T09:46:19;19.60;80.90
63313;DHT22;49442;45.640;13.812;2024-02-21T09:51:16;22.70;74.10
63313;DHT22;49442;45.640;13.812;2024-02-21T09:53:43;24.20;68.10
63313;DHT22;49442;45.640;13.812;2024-02-21T09:56:10;25.50;64.20
63313;DHT22;49442;45.640;13.812;2024-02-21T09:58:36;26.40;62.30
63313;DHT22;49442;45.640;13.812;2024-02-21T10:01:03;26.70;57.30
63313;DHT22;49442;45.640;13.812;2024-02-21T10:03:32;27.30;57.70
63313;DHT22;49442;45.640;13.812;2024-02-21T10:05:59;27.70;56.70
63313;DHT22;49442;45.640;13.812;2024-02-21T10:08:26;27.80;55.60
63313;DHT22;49442;45.640;13.812;2024-02-21T10:10:52;26.90;54.80
63313;DHT22;49442;45.640;13.812;2024-02-21T10:13:28;26.90;54.50
63313;DHT22;49442;45.640;13.812;2024-02-21T10:16:07;27.30;54.40
63313;DHT22;49442;45.640;13.812;2024-02-21T10:18:36;27.60;53.40
63313;DHT22;49442;45.640;13.812;2024-02-21T10:21:03;28.00;51.70
63313;DHT22;49442;45.640;13.812;2024-02-21T10:23:29;27.70;52.00
63313;DHT22;49442;45.640;13.812;2024-02-21T10:26:05;27.40;52.20
63313;DHT22;49442;45.640;13.812;2024-02-21T10:28:31;27.20;51.40
63313;DHT22;49442;45.640;13.812;2024-02-21T10:30:57;26.70;51.70
63313;DHT22;49442;45.640;13.812;2024-02-21T10:33:22;26.30;52.30
63313;DHT22;49442;45.640;13.812;2024-02-21T10:35:50;26.50;51.90
63313;DHT22;49442;45.640;13.812;2024-02-21T10:38:17;26.70;52.70
63313;DHT22;49442;45.640;13.812;2024-02-21T10:40:42;26.60;52.10
63313;DHT22;49442;45.640;13.812;2024-02-21T10:43:12;26.30;52.00
63313;DHT22;49442;45.640;13.812;2024-02-21T10:45:41;26.40;52.30
63313;DHT22;49442;45.640;13.812;2024-02-21T10:48:16;26.70;51.60
63313;DHT22;49442;45.640;13.812;2024-02-21T10:51:17;26.70;52.10
63313;DHT22;49442;45.640;13.812;2024-02-21T10:54:02;27.40;51.40
63313;DHT22;49442;45.640;13.812;2024-02-21T10:56:32;27.90;50.10
63313;DHT22;49442;45.640;13.812;2024-02-21T10:59:03;28.10;49.80
63313;DHT22;49442;45.640;13.812;2024-02-21T11:01:29;27.50;49.60
63313;DHT22;49442;45.640;13.812;2024-02-21T11:04:04;26.00;50.10
63313;DHT22;49442;45.640;13.812;2024-02-21T11:06:30;25.00;52.40
63313;DHT22;49442;45.640;13.812;2024-02-21T11:09:07;24.40;52.70
63313;DHT22;49442;45.640;13.812;2024-02-21T11:11:40;23.70;54.80
63313;DHT22;49442;45.640;13.812;2024-02-21T11:14:10;23.10;54.40
63313;DHT22;49442;45.640;13.812;2024-02-21T11:16:40;23.00;56.90
63313;DHT22;49442;45.640;13.812;2024-02-21T11:19:26;24.10;55.90
63313;DHT22;49442;45.640;13.812;2024-02-21T11:21:53;25.50;54.70
63313;DHT22;49442;45.640;13.812;2024-02-21T11:24:32;26.90;53.30
63313;DHT22;49442;45.640;13.812;2024-02-21T11:29:42;27.50;50.40
63313;DHT22;49442;45.640;13.812;2024-02-21T11:32:10;25.60;51.70
63313;DHT22;49442;45.640;13.812;2024-02-21T11:34:37;24.10;53.90
63313;DHT22;49442;45.640;13.812;2024-02-21T11:37:15;23.70;56.20
63313;DHT22;49442;45.640;13.812;2024-02-21T11:39:41;24.00;56.80
63313;DHT22;49442;45.640;13.812;2024-02-21T11:42:08;23.60;56.80
63313;DHT22;49442;45.640;13.812;2024-02-21T11:44:38;23.40;56.80
63313;DHT22;49442;45.640;13.812;2024-02-21T11:47:04;22.80;57.40
63313;DHT22;49442;45.640;13.812;2024-02-21T11:49:30;22.00;59.20
63313;DHT22;49442;45.640;13.812;2024-02-21T11:52:00;21.60;59.20
63313;DHT22;49442;45.640;13.812;2024-02-21T11:54:27;20.60;61.10
63313;DHT22;49442;45.640;13.812;2024-02-21T11:56:53;20.10;62.90
63313;DHT22;49442;45.640;13.812;2024-02-21T11:59:19;19.50;63.30
63313;DHT22;49442;45.640;13.812;2024-02-21T12:01:44;18.80;66.60
63313;DHT22;49442;45.640;13.812;2024-02-21T12:04:10;18.50;66.50
63313;DHT22;49442;45.640;13.812;2024-02-21T12:06:36;18.10;68.10
63313;DHT22;49442;45.640;13.812;2024-02-21T12:09:02;17.90;68.40
63313;DHT22;49442;45.640;13.812;2024-02-21T12:11:27;17.70;71.00
63313;DHT22;49442;45.640;13.812;2024-02-21T12:14:03;17.50;71.80
63313;DHT22;49442;45.640;13.812;2024-02-21T12:16:31;17.40;71.10
63313;DHT22;49442;45.640;13.812;2024-02-21T12:18:57;17.30;72.70
63313;DHT22;49442;45.640;13.812;2024-02-21T12:21:25;17.20;72.80
63313;DHT22;49442;45.640;13.812;2024-02-21T12:23:51;17.30;71.40
63313;DHT22;49442;45.640;13.812;2024-02-21T12:26:17;17.00;72.10
63313;DHT22;49442;45.640;13.812;2024-02-21T12:28:42;16.90;73.10
63313;DHT22;49442;45.640;13.812;2024-02-21T12:31:08;16.90;72.70
63313;DHT22;49442;45.640;13.812;2024-02-21T12:33:34;16.80;70.40
63313;DHT22;49442;45.640;13.812;2024-02-21T12:36:00;16.80;72.10
63313;DHT22;49442;45.640;13.812;2024-02-21T12:38:26;16.70;73.80
63313;DHT22;49442;45.640;13.812;2024-02-21T12:40:52;16.70;71.10
63313;DHT22;49442;45.640;13.812;2024-02-21T12:43:17;16.40;71.60
63313;DHT22;49442;45.640;13.812;2024-02-21T12:45:44;16.30;73.10
63313;DHT22;49442;45.640;13.812;2024-02-21T12:48:09;16.30;74.70
63313;DHT22;49442;45.640;13.812;2024-02-21T12:50:35;16.40;74.40
63313;DHT22;49442;45.640;13.812;2024-02-21T12:53:01;16.50;76.00
63313;DHT22;49442;45.640;13.812;2024-02-21T12:55:26;16.40;75.30
63313;DHT22;49442;45.640;13.812;2024-02-21T12:57:52;16.40;77.10
63313;DHT22;49442;45.640;13.812;2024-02-21T13:00:18;16.40;75.30
63313;DHT22;49442;45.640;13.812;2024-02-21T13:02:45;16.40;78.00
63313;DHT22;49442;45.640;13.812;2024-02-21T13:05:11;16.30;78.00
63313;DHT22;49442;45.640;13.812;2024-02-21T13:07:37;16.10;78.10
63313;DHT22;49442;45.640;13.812;2024-02-21T13:10:03;15.80;78.90
63313;DHT22;49442;45.640;13.812;2024-02-21T13:12:30;15.80;81.20
63313;DHT22;49442;45.640;13.812;2024-02-21T13:14:56;15.90;78.20
63313;DHT22;49442;45.640;13.812;2024-02-21T13:17:22;15.90;81.70
63313;DHT22;49442;45.640;13.812;2024-02-21T13:19:47;16.10;82.00
63313;DHT22;49442;45.640;13.812;2024-02-21T13:22:13;16.10;81.90
63313;DHT22;49442;45.640;13.812;2024-02-21T13:24:39;16.10;81.10
63313;DHT22;49442;45.640;13.812;2024-02-21T13:27:05;16.00;81.20
63313;DHT22;49442;45.640;13.812;2024-02-21T13:29:30;15.90;84.10
63313;DHT22;49442;45.640;13.812;2024-02-21T13:31:56;15.90;83.10
63313;DHT22;49442;45.640;13.812;2024-02-21T13:34:22;15.90;84.10
63313;DHT22;49442;45.640;13.812;2024-02-21T13:36:48;15.90;85.30
63313;DHT22;49442;45.640;13.812;2024-02-21T13:39:13;15.80;87.40
63313;DHT22;49442;45.640;13.812;2024-02-21T13:41:42;15.80;87.70
63313;DHT22;49442;45.640;13.812;2024-02-21T13:44:08;15.80;87.00
63313;DHT22;49442;45.640;13.812;2024-02-21T13:46:34;15.80;88.70
63313;DHT22;49442;45.640;13.812;2024-02-21T13:49:06;15.80;88.20
63313;DHT22;49442;45.640;13.812;2024-02-21T13:51:35;15.70;87.60
63313;DHT22;49442;45.640;13.812;2024-02-21T13:54:02;15.70;89.20
63313;DHT22;49442;45.640;13.812;2024-02-21T13:56:29;15.70;90.20
63313;DHT22;49442;45.640;13.812;2024-02-21T13:58:55;15.60;90.60
63313;DHT22;49442;45.640;13.812;2024-02-21T14:01:21;15.70;91.20
63313;DHT22;49442;45.640;13.812;2024-02-21T14:03:46;15.70;91.30
63313;DHT22;49442;45.640;13.812;2024-02-21T14:06:12;15.70;91.30
63313;DHT22;49442;45.640;13.812;2024-02-21T14:08:38;15.80;91.20
63313;DHT22;49442;45.640;13.812;2024-02-21T14:11:06;16.00;90.90
63313;DHT22;49442;45.640;13.812;2024-02-21T14:13:32;15.90;91.20
63313;DHT22;49442;45.640;13.812;2024-02-21T14:15:57;16.00;91.10
63313;DHT22;49442;45.640;13.812;2024-02-21T14:18:23;15.80;91.10
63313;DHT22;49442;45.640;13.812;2024-02-21T14:20:49;15.60;92.50
63313;DHT22;49442;45.640;13.812;2024-02-21T14:23:14;15.60;92.30
63313;DHT22;49442;45.640;13.812;2024-02-21T14:25:40;15.60;92.80
63313;DHT22;49442;45.640;13.812;2024-02-21T14:28:07;15.60;93.00
63313;DHT22;49442;45.640;13.812;2024-02-21T14:30:35;15.90;92.70
63313;DHT22;49442;45.640;13.812;2024-02-21T14:33:01;17.10;92.30
63313;DHT22;49442;45.640;13.812;2024-02-21T14:35:27;18.10;90.80
63313;DHT22;49442;45.640;13.812;2024-02-21T14:37:52;19.20;88.30
63313;DHT22;49442;45.640;13.812;2024-02-21T14:40:21;19.90;85.30
63313;DHT22;49442;45.640;13.812;2024-02-21T14:42:46;20.40;84.50
63313;DHT22;49442;45.640;13.812;2024-02-21T14:45:12;20.60;82.60
63313;DHT22;49442;45.640;13.812;2024-02-21T14:47:39;21.00;81.80
63313;DHT22;49442;45.640;13.812;2024-02-21T14:50:05;20.80;81.70
63313;DHT22;49442;45.640;13.812;2024-02-21T14:52:32;20.50;80.80
63313;DHT22;49442;45.640;13.812;2024-02-21T14:54:58;20.30;81.50
63313;DHT22;49442;45.640;13.812;2024-02-21T14:57:24;19.50;83.10
63313;DHT22;49442;45.640;13.812;2024-02-21T14:59:50;18.70;87.40
63313;DHT22;49442;45.640;13.812;2024-02-21T15:02:22;18.00;90.10
63313;DHT22;49442;45.640;13.812;2024-02-21T15:04:48;17.60;90.80
63313;DHT22;49442;45.640;13.812;2024-02-21T15:07:14;17.60;91.40
63313;DHT22;49442;45.640;13.812;2024-02-21T15:09:39;17.80;91.60
63313;DHT22;49442;45.640;13.812;2024-02-21T15:12:05;17.80;91.30
63313;DHT22;49442;45.640;13.812;2024-02-21T15:14:31;17.70;91.90
63313;DHT22;49442;45.640;13.812;2024-02-21T15:16:57;17.40;91.80
63313;DHT22;49442;45.640;13.812;2024-02-21T15:19:23;16.90;92.40